createdAt,value
2023-04-29T00:00:58.549Z,49.15
2023-04-29T00:01:59.481Z,47.05
2023-04-29T00:02:58.638Z,47.05
2023-04-29T00:03:58.821Z,50.27
2023-04-29T00:04:58.985Z,50.43
2023-04-29T00:05:58.812Z,50.60
2023-04-29T00:06:58.515Z,46.25
2023-04-29T00:07:58.489Z,49.47
2023-04-29T00:08:58.488Z,48.82
2023-04-29T00:09:58.511Z,46.89
2023-04-29T00:10:58.507Z,49.31
2023-04-29T00:11:58.472Z,47.37
2023-04-29T00:12:58.458Z,47.21
2023-04-29T00:13:58.470Z,48.02
2023-04-29T00:14:58.451Z,48.66
2023-04-29T00:15:58.488Z,47.86
2023-04-29T00:16:58.484Z,46.57
2023-04-29T00:17:58.456Z,46.89
2023-04-29T00:18:58.427Z,47.86
2023-04-29T00:19:58.421Z,48.98
2023-04-29T00:20:58.419Z,45.76
2023-04-29T00:21:58.428Z,46.25
2023-04-29T00:22:58.413Z,48.50
2023-04-29T00:23:58.405Z,49.95
2023-04-29T00:24:58.406Z,47.21
2023-04-29T00:25:58.393Z,50.92
2023-04-29T00:26:58.390Z,47.86
2023-04-29T00:27:58.378Z,49.79
2023-04-29T00:28:58.373Z,45.60
2023-04-29T00:29:58.352Z,48.34
2023-04-29T00:30:58.449Z,47.70
2023-04-29T00:31:58.373Z,52.21
2023-04-29T00:32:58.393Z,48.82
2023-04-29T00:33:58.337Z,48.02
2023-04-29T00:34:58.335Z,48.02
2023-04-29T00:35:58.328Z,47.70
2023-04-29T00:36:58.374Z,49.15
2023-04-29T00:37:58.307Z,47.53
2023-04-29T00:38:58.302Z,51.08
2023-04-29T00:39:58.299Z,51.72
2023-04-29T00:40:58.293Z,46.41
2023-04-29T00:41:58.280Z,46.89
2023-04-29T00:42:58.292Z,48.66
2023-04-29T00:43:58.279Z,51.24
2023-04-29T00:44:58.274Z,49.47
2023-04-29T00:45:58.326Z,51.88
2023-04-29T00:46:58.253Z,52.69
2023-04-29T00:47:58.306Z,49.95
2023-04-29T00:48:58.241Z,47.21
2023-04-29T00:49:58.249Z,47.37
2023-04-29T00:50:58.231Z,46.41
2023-04-29T00:51:58.296Z,48.34
2023-04-29T00:52:58.215Z,48.82
2023-04-29T00:53:58.230Z,48.50
2023-04-29T00:54:58.204Z,46.89
2023-04-29T00:55:58.193Z,51.24
2023-04-29T00:56:58.203Z,47.21
2023-04-29T00:57:58.184Z,46.89
2023-04-29T00:58:58.196Z,48.66
2023-04-29T00:59:58.184Z,47.53
2023-04-29T01:00:58.177Z,46.08
2023-04-29T01:01:58.257Z,46.25
2023-04-29T01:02:58.272Z,47.53
2023-04-29T01:03:58.384Z,47.53
2023-04-29T01:04:58.187Z,46.25
2023-04-29T01:05:58.150Z,48.18
2023-04-29T01:06:58.130Z,49.31
2023-04-29T01:07:58.127Z,47.37
2023-04-29T01:08:58.137Z,52.05
2023-04-29T01:09:58.130Z,48.02
2023-04-29T01:10:58.113Z,48.66
2023-04-29T01:11:58.120Z,50.11
2023-04-29T01:12:58.176Z,49.79
2023-04-29T01:13:58.110Z,46.73
2023-04-29T01:14:58.079Z,47.86
2023-04-29T01:15:58.090Z,47.05
2023-04-29T01:16:58.066Z,45.92
2023-04-29T01:17:58.170Z,47.53
2023-04-29T01:18:58.080Z,45.28
2023-04-29T01:19:58.063Z,49.47
2023-04-29T01:20:58.065Z,46.41
2023-04-29T01:21:58.064Z,47.21
2023-04-29T01:22:58.108Z,50.43
2023-04-29T01:23:58.033Z,48.98
2023-04-29T01:24:58.021Z,47.21
2023-04-29T01:25:58.071Z,52.05
2023-04-29T01:26:58.018Z,46.57
2023-04-29T01:27:58.004Z,46.57
2023-04-29T01:28:58.006Z,49.31
2023-04-29T01:29:57.996Z,46.41
2023-04-29T01:30:58.041Z,50.27
2023-04-29T01:31:58.298Z,46.73
2023-04-29T01:32:58.085Z,46.57
2023-04-29T01:33:57.973Z,46.57
2023-04-29T01:34:57.970Z,47.05
2023-04-29T01:35:57.965Z,47.05
2023-04-29T01:36:57.972Z,49.47
2023-04-29T01:37:57.965Z,48.82
2023-04-29T01:38:57.948Z,48.02
2023-04-29T01:39:57.932Z,50.27
2023-04-29T01:40:57.934Z,49.79
2023-04-29T01:41:57.936Z,47.37
2023-04-29T01:42:57.913Z,47.21
2023-04-29T01:43:57.906Z,46.25
2023-04-29T01:44:57.905Z,50.60
2023-04-29T01:45:57.895Z,49.63
2023-04-29T01:46:57.937Z,46.73
2023-04-29T01:47:57.972Z,46.41
2023-04-29T01:48:57.874Z,48.98
2023-04-29T01:49:57.869Z,47.70
2023-04-29T01:50:57.859Z,49.15
2023-04-29T01:51:57.864Z,48.34
2023-04-29T01:52:57.876Z,49.95
2023-04-29T01:53:57.861Z,47.21
2023-04-29T01:54:57.871Z,46.89
2023-04-29T01:55:58.840Z,47.53
2023-04-29T01:56:57.841Z,49.31
2023-04-29T01:57:57.836Z,52.53
2023-04-29T01:58:57.810Z,48.82
2023-04-29T01:59:57.809Z,50.60
2023-04-29T02:00:57.890Z,47.70
2023-04-29T02:01:57.787Z,48.02
2023-04-29T02:02:57.875Z,52.21
2023-04-29T02:03:57.922Z,48.66
2023-04-29T02:04:57.791Z,49.79
2023-04-29T02:05:57.780Z,53.17
2023-04-29T02:06:57.762Z,49.63
2023-04-29T02:07:57.783Z,46.57
2023-04-29T02:08:57.747Z,46.57
2023-04-29T02:09:57.751Z,48.18
2023-04-29T02:10:57.748Z,46.73
2023-04-29T02:11:57.727Z,47.05
2023-04-29T02:12:57.752Z,48.34
2023-04-29T02:13:57.717Z,47.37
2023-04-29T02:14:57.775Z,47.05
2023-04-29T02:15:57.721Z,46.41
2023-04-29T02:16:57.692Z,47.53
2023-04-29T02:17:57.743Z,46.41
2023-04-29T02:18:57.703Z,50.76
2023-04-29T02:19:57.693Z,48.34
2023-04-29T02:20:57.676Z,48.34
2023-04-29T02:21:57.670Z,46.89
2023-04-29T02:22:57.665Z,47.53
2023-04-29T02:23:57.648Z,46.41
2023-04-29T02:24:57.644Z,46.89
2023-04-29T02:25:57.673Z,47.37
2023-04-29T02:26:57.658Z,46.89
2023-04-29T02:27:57.638Z,47.21
2023-04-29T02:28:57.618Z,46.73
2023-04-29T02:29:57.617Z,46.73
2023-04-29T02:30:57.621Z,48.66
2023-04-29T02:31:57.646Z,48.34
2023-04-29T02:32:57.626Z,50.27
2023-04-29T02:33:57.598Z,46.89
2023-04-29T02:34:57.586Z,50.43
2023-04-29T02:35:57.585Z,47.53
2023-04-29T02:36:57.582Z,50.43
2023-04-29T02:37:57.577Z,47.70
2023-04-29T02:38:57.574Z,46.89
2023-04-29T02:39:57.561Z,47.70
2023-04-29T02:40:57.560Z,50.43
2023-04-29T02:41:57.552Z,49.15
2023-04-29T02:42:57.544Z,46.08
2023-04-29T02:43:57.577Z,47.21
2023-04-29T02:44:57.527Z,45.60
2023-04-29T02:45:57.555Z,47.37
2023-04-29T02:46:57.513Z,47.05
2023-04-29T02:47:57.520Z,47.37
2023-04-29T02:48:57.527Z,49.31
2023-04-29T02:49:57.514Z,49.47
2023-04-29T02:50:57.501Z,48.98
2023-04-29T02:51:57.480Z,49.79
2023-04-29T02:52:57.474Z,47.53
2023-04-29T02:53:57.475Z,48.02
2023-04-29T02:54:57.476Z,48.98
2023-04-29T02:55:57.460Z,47.70
2023-04-29T02:56:57.484Z,48.18
2023-04-29T02:57:57.444Z,46.89
2023-04-29T02:58:57.455Z,46.89
2023-04-29T02:59:57.456Z,46.89
2023-04-29T03:00:57.448Z,50.43
2023-04-29T03:01:57.424Z,47.86
2023-04-29T03:02:57.604Z,46.73
2023-04-29T03:03:57.684Z,46.57
2023-04-29T03:04:57.416Z,49.31
2023-04-29T03:05:57.398Z,49.15
2023-04-29T03:06:57.393Z,50.11
2023-04-29T03:07:57.386Z,48.18
2023-04-29T03:08:57.417Z,48.02
2023-04-29T03:09:57.382Z,47.05
2023-04-29T03:10:57.372Z,48.82
2023-04-29T03:11:57.372Z,47.05
2023-04-29T03:12:57.392Z,50.11
2023-04-29T03:13:57.379Z,49.31
2023-04-29T03:14:57.360Z,50.11
2023-04-29T03:15:57.328Z,50.60
2023-04-29T03:16:57.394Z,51.72
2023-04-29T03:17:57.353Z,50.76
2023-04-29T03:18:57.344Z,52.05
2023-04-29T03:19:57.330Z,47.86
2023-04-29T03:20:57.311Z,49.63
2023-04-29T03:21:57.324Z,52.05
2023-04-29T03:22:57.312Z,47.70
2023-04-29T03:23:57.304Z,47.05
2023-04-29T03:24:57.291Z,46.89
2023-04-29T03:25:57.325Z,49.79
2023-04-29T03:26:57.276Z,50.60
2023-04-29T03:27:57.292Z,49.63
2023-04-29T03:28:57.300Z,47.53
2023-04-29T03:29:57.258Z,48.50
2023-04-29T03:30:57.272Z,52.37
2023-04-29T03:31:57.244Z,51.08
2023-04-29T03:32:57.290Z,50.76
2023-04-29T03:33:57.262Z,54.14
2023-04-29T03:34:57.221Z,51.24
2023-04-29T03:35:57.213Z,50.60
2023-04-29T03:36:57.204Z,52.53
2023-04-29T03:37:57.197Z,49.79
2023-04-29T03:38:57.276Z,51.08
2023-04-29T03:39:57.240Z,52.69
2023-04-29T03:40:57.182Z,50.60
2023-04-29T03:41:57.174Z,49.15
2023-04-29T03:42:57.174Z,49.79
2023-04-29T03:43:57.166Z,53.82
2023-04-29T03:44:57.168Z,51.56
2023-04-29T03:45:57.165Z,51.24
2023-04-29T03:46:57.157Z,51.56
2023-04-29T03:47:57.220Z,51.56
2023-04-29T03:48:57.123Z,50.76
2023-04-29T03:49:57.120Z,48.18
2023-04-29T03:50:57.119Z,46.41
2023-04-29T03:51:57.112Z,47.86
2023-04-29T03:52:57.122Z,48.66
2023-04-29T03:53:57.104Z,49.31
2023-04-29T03:54:57.091Z,49.95
2023-04-29T03:55:57.084Z,50.92
2023-04-29T03:56:57.083Z,47.70
2023-04-29T03:57:57.079Z,51.08
2023-04-29T03:58:57.079Z,50.11
2023-04-29T03:59:57.056Z,51.24
2023-04-29T04:00:57.066Z,48.34
2023-04-29T04:01:57.085Z,47.86
2023-04-29T04:02:57.201Z,50.27
2023-04-29T04:03:57.369Z,50.60
2023-04-29T04:04:57.120Z,52.37
2023-04-29T04:05:57.034Z,52.85
2023-04-29T04:06:57.018Z,48.50
2023-04-29T04:07:57.024Z,48.66
2023-04-29T04:08:57.018Z,50.92
2023-04-29T04:09:57.011Z,50.76
2023-04-29T04:10:56.999Z,50.43
2023-04-29T04:11:56.984Z,48.66
2023-04-29T04:12:56.989Z,48.98
2023-04-29T04:13:56.975Z,52.85
2023-04-29T04:14:56.999Z,53.17
2023-04-29T04:15:56.994Z,47.53
2023-04-29T04:16:56.959Z,48.50
2023-04-29T04:17:57.093Z,53.82
2023-04-29T04:18:56.951Z,51.56
2023-04-29T04:19:56.939Z,47.86
2023-04-29T04:20:56.961Z,47.70
2023-04-29T04:21:56.923Z,52.21
2023-04-29T04:22:56.915Z,50.11
2023-04-29T04:23:56.914Z,49.79
2023-04-29T04:24:56.914Z,51.24
2023-04-29T04:25:56.906Z,49.47
2023-04-29T04:26:56.887Z,51.56
2023-04-29T04:27:56.887Z,53.17
2023-04-29T04:28:56.901Z,53.82
2023-04-29T04:29:56.878Z,52.53
2023-04-29T04:30:56.884Z,54.46
2023-04-29T04:31:56.945Z,53.17
2023-04-29T04:32:56.898Z,49.95
2023-04-29T04:33:56.867Z,52.37
2023-04-29T04:34:56.853Z,51.24
2023-04-29T04:35:56.837Z,54.30
2023-04-29T04:36:56.852Z,54.14
2023-04-29T04:37:56.831Z,52.69
2023-04-29T04:38:56.836Z,56.56
2023-04-29T04:39:56.812Z,53.66
2023-04-29T04:40:56.816Z,53.33
2023-04-29T04:41:56.809Z,53.50
2023-04-29T04:42:56.808Z,53.33
2023-04-29T04:43:56.789Z,53.33
2023-04-29T04:44:56.819Z,54.46
2023-04-29T04:45:56.931Z,52.85
2023-04-29T04:46:56.781Z,52.53
2023-04-29T04:47:56.804Z,51.24
2023-04-29T04:48:56.763Z,51.72
2023-04-29T04:49:56.779Z,53.50
2023-04-29T04:50:56.746Z,48.98
2023-04-29T04:51:56.738Z,51.40
2023-04-29T04:52:56.741Z,52.85
2023-04-29T04:53:56.738Z,49.79
2023-04-29T04:54:56.732Z,52.37
2023-04-29T04:55:56.780Z,52.37
2023-04-29T04:56:56.714Z,50.27
2023-04-29T04:57:56.717Z,52.37
2023-04-29T04:58:56.732Z,50.11
2023-04-29T04:59:56.704Z,50.76
2023-04-29T05:00:56.720Z,50.11
2023-04-29T05:01:57.705Z,47.53
2023-04-29T05:02:56.775Z,50.11
2023-04-29T05:03:56.755Z,48.98
2023-04-29T05:04:56.670Z,48.98
2023-04-29T05:05:56.663Z,49.31
2023-04-29T05:06:56.671Z,47.86
2023-04-29T05:07:56.669Z,49.15
2023-04-29T05:08:56.640Z,48.82
2023-04-29T05:09:56.630Z,49.31
2023-04-29T05:10:57.621Z,49.63
2023-04-29T05:11:56.625Z,51.40
2023-04-29T05:12:56.626Z,52.21
2023-04-29T05:13:56.617Z,50.43
2023-04-29T05:14:56.605Z,48.50
2023-04-29T05:15:56.589Z,50.92
2023-04-29T05:16:56.647Z,53.66
2023-04-29T05:17:56.617Z,51.72
2023-04-29T05:18:56.606Z,51.72
2023-04-29T05:19:56.580Z,50.76
2023-04-29T05:20:56.558Z,51.24
2023-04-29T05:21:56.576Z,51.24
2023-04-29T05:22:56.548Z,52.53
2023-04-29T05:23:56.551Z,50.11
2023-04-29T05:24:56.549Z,51.56
2023-04-29T05:25:56.553Z,51.72
2023-04-29T05:26:56.531Z,52.85
2023-04-29T05:27:56.525Z,53.50
2023-04-29T05:28:56.520Z,51.72
2023-04-29T05:29:56.509Z,51.88
2023-04-29T05:30:56.538Z,51.88
2023-04-29T05:31:56.501Z,50.60
2023-04-29T05:32:56.547Z,52.37
2023-04-29T05:33:56.505Z,53.33
2023-04-29T05:34:56.499Z,50.11
2023-04-29T05:35:56.503Z,52.85
2023-04-29T05:36:56.476Z,50.11
2023-04-29T05:37:56.462Z,50.43
2023-04-29T05:38:56.455Z,54.79
2023-04-29T05:39:56.452Z,53.01
2023-04-29T05:40:56.457Z,53.50
2023-04-29T05:41:56.449Z,51.56
2023-04-29T05:42:56.432Z,51.56
2023-04-29T05:43:56.433Z,51.24
2023-04-29T05:44:56.432Z,50.11
2023-04-29T05:45:56.472Z,51.08
2023-04-29T05:46:56.431Z,50.11
2023-04-29T05:47:56.452Z,50.76
2023-04-29T05:48:56.440Z,53.01
2023-04-29T05:49:56.391Z,50.43
2023-04-29T05:50:56.381Z,50.92
2023-04-29T05:51:56.386Z,52.21
2023-04-29T05:52:56.390Z,48.82
2023-04-29T05:53:56.361Z,50.76
2023-04-29T05:54:56.357Z,47.05
2023-04-29T05:55:56.357Z,48.18
2023-04-29T05:56:56.437Z,52.37
2023-04-29T05:57:56.353Z,50.92
2023-04-29T05:58:56.342Z,53.82
2023-04-29T05:59:56.338Z,49.95
2023-04-29T06:00:57.634Z,52.21
2023-04-29T06:01:56.357Z,53.50
2023-04-29T06:02:59.031Z,51.40
2023-04-29T06:03:57.497Z,52.69
2023-04-29T06:04:56.539Z,52.69
2023-04-29T06:05:56.480Z,51.88
2023-04-29T06:06:56.295Z,53.33
2023-04-29T06:07:56.287Z,53.82
2023-04-29T06:08:56.270Z,50.60
2023-04-29T06:09:56.276Z,48.02
2023-04-29T06:10:56.278Z,53.33
2023-04-29T06:11:56.291Z,51.88
2023-04-29T06:12:56.242Z,52.05
2023-04-29T06:13:56.270Z,50.76
2023-04-29T06:14:56.273Z,53.66
2023-04-29T06:15:56.277Z,51.88
2023-04-29T06:16:56.228Z,52.69
2023-04-29T06:17:56.246Z,51.08
2023-04-29T06:18:56.220Z,50.43
2023-04-29T06:19:56.217Z,51.56
2023-04-29T06:20:56.210Z,53.66
2023-04-29T06:21:56.194Z,53.66
2023-04-29T06:22:56.191Z,51.24
2023-04-29T06:23:56.196Z,49.95
2023-04-29T06:24:56.190Z,50.43
2023-04-29T06:25:56.204Z,53.66
2023-04-29T06:26:56.167Z,53.33
2023-04-29T06:27:56.174Z,51.88
2023-04-29T06:28:56.155Z,54.62
2023-04-29T06:29:56.153Z,52.69
2023-04-29T06:30:56.142Z,51.40
2023-04-29T06:31:56.223Z,54.46
2023-04-29T06:32:56.232Z,53.01
2023-04-29T06:33:56.120Z,54.46
2023-04-29T06:34:56.133Z,53.33
2023-04-29T06:35:56.113Z,52.21
2023-04-29T06:36:56.114Z,53.17
2023-04-29T06:37:56.107Z,52.69
2023-04-29T06:38:56.395Z,53.98
2023-04-29T06:39:56.091Z,53.01
2023-04-29T06:40:56.123Z,52.69
2023-04-29T06:41:56.078Z,54.14
2023-04-29T06:42:56.096Z,52.53
2023-04-29T06:43:56.078Z,52.05
2023-04-29T06:44:56.057Z,53.01
2023-04-29T06:45:56.050Z,52.05
2023-04-29T06:46:56.080Z,54.30
2023-04-29T06:47:56.106Z,54.95
2023-04-29T06:48:56.082Z,53.82
2023-04-29T06:49:56.028Z,52.37
2023-04-29T06:50:56.069Z,50.60
2023-04-29T06:51:56.011Z,50.27
2023-04-29T06:52:56.014Z,53.17
2023-04-29T06:53:55.990Z,53.98
2023-04-29T06:54:55.998Z,51.08
2023-04-29T06:55:55.992Z,53.33
2023-04-29T06:56:55.965Z,51.56
2023-04-29T06:57:55.955Z,50.27
2023-04-29T06:58:56.043Z,52.85
2023-04-29T06:59:55.982Z,52.05
2023-04-29T07:00:56.001Z,53.66
2023-04-29T07:01:56.114Z,49.15
2023-04-29T07:02:56.040Z,53.82
2023-04-29T07:03:56.316Z,53.50
2023-04-29T07:04:55.963Z,52.21
2023-04-29T07:05:55.918Z,52.21
2023-04-29T07:06:55.899Z,52.85
2023-04-29T07:07:56.045Z,53.17
2023-04-29T07:08:57.019Z,52.85
2023-04-29T07:09:56.935Z,53.17
2023-04-29T07:10:55.878Z,52.37
2023-04-29T07:11:55.930Z,53.50
2023-04-29T07:12:55.875Z,56.07
2023-04-29T07:13:55.880Z,54.14
2023-04-29T07:14:55.859Z,52.85
2023-04-29T07:15:55.852Z,54.79
2023-04-29T07:16:55.905Z,54.62
2023-04-29T07:17:55.861Z,54.62
2023-04-29T07:18:55.843Z,53.82
2023-04-29T07:19:55.819Z,53.01
2023-04-29T07:20:55.830Z,53.01
2023-04-29T07:21:55.811Z,53.33
2023-04-29T07:22:55.819Z,53.82
2023-04-29T07:23:55.806Z,54.30
2023-04-29T07:24:55.792Z,55.75
2023-04-29T07:25:55.777Z,53.82
2023-04-29T07:26:55.783Z,54.30
2023-04-29T07:27:55.812Z,53.66
2023-04-29T07:28:55.762Z,53.66
2023-04-29T07:29:55.772Z,54.95
2023-04-29T07:30:55.781Z,55.91
2023-04-29T07:31:55.747Z,54.95
2023-04-29T07:32:55.782Z,53.82
2023-04-29T07:33:55.727Z,55.27
2023-04-29T07:34:55.740Z,55.27
2023-04-29T07:35:55.717Z,55.11
2023-04-29T07:36:55.730Z,53.98
2023-04-29T07:37:55.752Z,54.79
2023-04-29T07:38:55.735Z,55.59
2023-04-29T07:39:55.701Z,51.88
2023-04-29T07:40:55.700Z,54.30
2023-04-29T07:41:55.681Z,54.46
2023-04-29T07:42:55.693Z,54.30
2023-04-29T07:43:55.686Z,53.82
2023-04-29T07:44:55.790Z,54.14
2023-04-29T07:45:55.716Z,52.53
2023-04-29T07:46:55.650Z,54.62
2023-04-29T07:47:55.680Z,54.62
2023-04-29T07:48:55.661Z,53.98
2023-04-29T07:49:55.628Z,53.66
2023-04-29T07:50:55.620Z,55.59
2023-04-29T07:51:55.622Z,53.98
2023-04-29T07:52:55.605Z,52.21
2023-04-29T07:53:55.618Z,52.05
2023-04-29T07:54:55.618Z,52.85
2023-04-29T07:55:55.592Z,54.30
2023-04-29T07:56:55.578Z,54.79
2023-04-29T07:57:55.566Z,52.21
2023-04-29T07:58:56.567Z,52.53
2023-04-29T07:59:55.586Z,53.50
2023-04-29T08:00:55.546Z,53.01
2023-04-29T08:01:55.554Z,52.69
2023-04-29T08:02:55.640Z,53.33
2023-04-29T08:03:55.855Z,53.66
2023-04-29T08:04:56.158Z,53.17
2023-04-29T08:05:55.607Z,54.14
2023-04-29T08:06:55.506Z,54.46
2023-04-29T08:07:55.504Z,55.91
2023-04-29T08:08:55.501Z,53.66
2023-04-29T08:09:55.603Z,54.30
2023-04-29T08:10:55.502Z,55.11
2023-04-29T08:11:55.480Z,53.66
2023-04-29T08:12:55.476Z,53.50
2023-04-29T08:13:55.462Z,54.14
2023-04-29T08:14:55.534Z,54.79
2023-04-29T08:15:55.507Z,53.82
2023-04-29T08:16:55.446Z,54.46
2023-04-29T08:17:55.478Z,54.14
2023-04-29T08:18:55.441Z,55.27
2023-04-29T08:19:55.439Z,55.59
2023-04-29T08:20:55.432Z,55.75
2023-04-29T08:21:55.444Z,55.27
2023-04-29T08:22:55.450Z,54.14
2023-04-29T08:23:55.408Z,54.30
2023-04-29T08:24:55.410Z,55.27
2023-04-29T08:25:55.386Z,53.33
2023-04-29T08:26:55.388Z,53.17
2023-04-29T08:27:55.399Z,55.11
2023-04-29T08:28:55.367Z,55.59
2023-04-29T08:29:55.367Z,54.30
2023-04-29T08:30:55.354Z,53.50
2023-04-29T08:31:55.432Z,54.46
2023-04-29T08:32:55.348Z,53.50
2023-04-29T08:33:55.349Z,54.62
2023-04-29T08:34:55.632Z,54.46
2023-04-29T08:35:55.335Z,54.79
2023-04-29T08:36:55.328Z,56.24
2023-04-29T08:37:55.324Z,55.27
2023-04-29T08:38:55.327Z,54.62
2023-04-29T08:39:55.295Z,53.33
2023-04-29T08:40:55.303Z,52.69
2023-04-29T08:41:55.275Z,53.17
2023-04-29T08:42:55.264Z,52.85
2023-04-29T08:43:55.267Z,53.82
2023-04-29T08:44:55.340Z,53.50
2023-04-29T08:45:55.306Z,53.01
2023-04-29T08:46:55.243Z,53.98
2023-04-29T08:47:55.287Z,53.50
2023-04-29T08:48:55.230Z,55.75
2023-04-29T08:49:55.211Z,54.30
2023-04-29T08:50:55.215Z,55.11
2023-04-29T08:51:55.230Z,53.66
2023-04-29T08:52:55.211Z,55.11
2023-04-29T08:53:55.186Z,53.01
2023-04-29T08:54:55.255Z,52.37
2023-04-29T08:55:55.175Z,53.50
2023-04-29T08:56:55.167Z,53.98
2023-04-29T08:57:55.178Z,54.30
2023-04-29T08:58:55.149Z,53.98
2023-04-29T08:59:55.138Z,53.82
2023-04-29T09:00:55.164Z,54.79
2023-04-29T09:01:55.132Z,51.72
2023-04-29T09:02:55.225Z,53.50
2023-04-29T09:03:55.314Z,54.30
2023-04-29T09:04:55.426Z,53.01
2023-04-29T09:05:55.098Z,52.53
2023-04-29T09:06:55.096Z,54.14
2023-04-29T09:07:55.093Z,54.95
2023-04-29T09:08:55.124Z,53.01
2023-04-29T09:09:55.065Z,52.85
2023-04-29T09:10:55.135Z,53.17
2023-04-29T09:11:55.061Z,52.21
2023-04-29T09:12:55.101Z,54.30
2023-04-29T09:13:55.049Z,53.01
2023-04-29T09:14:56.021Z,52.05
2023-04-29T09:15:55.038Z,53.82
2023-04-29T09:16:55.224Z,52.85
2023-04-29T09:17:55.025Z,52.85
2023-04-29T09:18:55.007Z,54.14
2023-04-29T09:19:55.019Z,54.62
2023-04-29T09:20:54.983Z,51.72
2023-04-29T09:21:54.994Z,52.37
2023-04-29T09:22:54.999Z,51.24
2023-04-29T09:23:54.989Z,52.85
2023-04-29T09:24:55.848Z,52.21
2023-04-29T09:25:54.949Z,49.63
2023-04-29T09:26:54.951Z,52.53
2023-04-29T09:27:54.940Z,54.30
2023-04-29T09:28:54.948Z,50.43
2023-04-29T09:29:54.933Z,50.43
2023-04-29T09:30:54.930Z,52.05
2023-04-29T09:31:55.054Z,52.21
2023-04-29T09:32:54.954Z,51.08
2023-04-29T09:33:54.912Z,51.08
2023-04-29T09:34:55.101Z,52.53
2023-04-29T09:35:54.880Z,54.30
2023-04-29T09:36:54.898Z,53.17
2023-04-29T09:37:54.872Z,52.53
2023-04-29T09:38:54.926Z,52.21
2023-04-29T09:39:55.110Z,52.53
2023-04-29T09:40:59.371Z,50.92
2023-04-29T09:41:55.861Z,53.17
2023-04-29T09:42:54.833Z,53.17
2023-04-29T09:43:54.825Z,53.82
2023-04-29T09:44:55.030Z,53.17
2023-04-29T09:45:54.873Z,54.14
2023-04-29T09:46:54.808Z,53.50
2023-04-29T09:47:54.856Z,54.46
2023-04-29T09:48:54.790Z,52.05
2023-04-29T09:49:54.779Z,51.24
2023-04-29T09:50:54.772Z,51.88
2023-04-29T09:51:54.773Z,53.82
2023-04-29T09:52:54.787Z,53.01
2023-04-29T09:53:54.745Z,51.72
2023-04-29T09:54:55.056Z,52.69
2023-04-29T09:55:54.732Z,51.40
2023-04-29T09:56:54.735Z,53.17
2023-04-29T09:57:54.747Z,51.24
2023-04-29T09:58:54.718Z,53.98
2023-04-29T09:59:54.721Z,52.85
2023-04-29T10:00:54.704Z,51.88
2023-04-29T10:01:54.800Z,51.08
2023-04-29T10:02:54.797Z,53.17
2023-04-29T10:03:54.785Z,53.66
2023-04-29T10:04:54.920Z,55.11
2023-04-29T10:05:54.661Z,53.82
2023-04-29T10:06:54.645Z,52.85
2023-04-29T10:07:54.644Z,53.01
2023-04-29T10:08:54.663Z,53.50
2023-04-29T10:09:54.763Z,55.43
2023-04-29T10:10:54.650Z,53.66
2023-04-29T10:11:54.623Z,53.66
2023-04-29T10:12:54.630Z,53.17
2023-04-29T10:13:54.632Z,54.30
2023-04-29T10:14:54.826Z,53.66
2023-04-29T10:15:54.614Z,52.53
2023-04-29T10:16:54.691Z,54.79
2023-04-29T10:17:54.657Z,54.79
2023-04-29T10:18:54.610Z,52.85
2023-04-29T10:19:54.664Z,52.37
2023-04-29T10:20:54.552Z,53.01
2023-04-29T10:21:54.571Z,51.08
2023-04-29T10:22:54.561Z,52.21
2023-04-29T10:23:54.590Z,53.82
2023-04-29T10:24:54.652Z,52.69
2023-04-29T10:25:54.525Z,51.08
2023-04-29T10:26:54.516Z,50.76
2023-04-29T10:27:54.731Z,51.88
2023-04-29T10:28:54.701Z,52.53
2023-04-29T10:29:54.503Z,54.14
2023-04-29T10:30:54.515Z,51.72
2023-04-29T10:31:54.678Z,52.21
2023-04-29T10:32:54.650Z,50.60
2023-04-29T10:33:55.519Z,53.33
2023-04-29T10:34:54.718Z,52.21
2023-04-29T10:35:54.715Z,53.01
2023-04-29T10:36:54.445Z,54.14
2023-04-29T10:37:54.484Z,52.37
2023-04-29T10:38:54.418Z,53.17
2023-04-29T10:39:54.544Z,53.17
2023-04-29T10:40:55.500Z,52.69
2023-04-29T10:41:54.699Z,50.60
2023-04-29T10:42:54.457Z,53.17
2023-04-29T10:43:54.625Z,52.53
2023-04-29T10:44:54.552Z,52.37
2023-04-29T10:45:54.671Z,51.56
2023-04-29T10:46:54.463Z,50.11
2023-04-29T10:47:54.488Z,49.95
2023-04-29T10:48:54.365Z,49.47
2023-04-29T10:49:54.376Z,52.21
2023-04-29T10:50:54.357Z,52.85
2023-04-29T10:51:54.339Z,52.21
2023-04-29T10:52:54.332Z,51.72
2023-04-29T10:53:54.326Z,50.60
2023-04-29T10:54:54.397Z,51.24
2023-04-29T10:55:54.315Z,52.53
2023-04-29T10:56:54.384Z,52.69
2023-04-29T10:57:54.291Z,52.05
2023-04-29T10:58:54.341Z,51.88
2023-04-29T10:59:54.375Z,52.53
2023-04-29T11:00:54.910Z,51.88
2023-04-29T11:01:54.277Z,51.72
2023-04-29T11:02:54.315Z,51.24
2023-04-29T11:03:54.393Z,52.69
2023-04-29T11:04:54.610Z,51.56
2023-04-29T11:05:54.264Z,51.24
2023-04-29T11:06:54.235Z,52.69
2023-04-29T11:07:54.224Z,52.69
2023-04-29T11:08:54.243Z,53.82
2023-04-29T11:09:54.351Z,52.37
2023-04-29T11:10:54.216Z,50.60
2023-04-29T11:11:54.253Z,50.11
2023-04-29T11:12:54.206Z,50.76
2023-04-29T11:13:54.201Z,53.33
2023-04-29T11:14:54.511Z,51.88
2023-04-29T11:15:54.174Z,52.37
2023-04-29T11:16:54.203Z,51.40
2023-04-29T11:17:54.181Z,52.69
2023-04-29T11:18:54.145Z,53.01
2023-04-29T11:19:54.603Z,52.69
2023-04-29T11:20:54.123Z,50.92
2023-04-29T11:21:55.121Z,54.95
2023-04-29T11:22:54.128Z,52.85
2023-04-29T11:23:54.109Z,52.37
2023-04-29T11:24:54.489Z,51.24
2023-04-29T11:25:54.118Z,52.53
2023-04-29T11:26:54.102Z,52.53
2023-04-29T11:27:54.086Z,54.14
2023-04-29T11:28:54.073Z,51.88
2023-04-29T11:29:54.089Z,51.56
2023-04-29T11:30:54.109Z,50.76
2023-04-29T11:31:54.100Z,52.05
2023-04-29T11:32:54.115Z,52.69
2023-04-29T11:33:54.039Z,52.05
2023-04-29T11:34:54.412Z,50.60
2023-04-29T11:35:54.047Z,50.60
2023-04-29T11:36:54.021Z,53.50
2023-04-29T11:37:54.012Z,53.98
2023-04-29T11:38:54.014Z,53.50
2023-04-29T11:39:54.000Z,53.01
2023-04-29T11:40:54.041Z,53.01
2023-04-29T11:41:53.979Z,52.05
2023-04-29T11:42:53.988Z,53.01
2023-04-29T11:43:53.971Z,52.37
2023-04-29T11:44:54.407Z,50.92
2023-04-29T11:45:54.019Z,51.88
2023-04-29T11:46:53.956Z,53.82
2023-04-29T11:47:55.967Z,52.85
2023-04-29T11:48:54.965Z,55.27
2023-04-29T11:49:53.929Z,52.53
2023-04-29T11:50:53.919Z,52.05
2023-04-29T11:51:53.934Z,53.33
2023-04-29T11:52:53.903Z,50.11
2023-04-29T11:53:53.920Z,50.27
2023-04-29T11:54:54.138Z,52.85
2023-04-29T11:55:53.892Z,51.24
2023-04-29T11:56:53.883Z,51.08
2023-04-29T11:57:53.874Z,52.53
2023-04-29T11:58:53.864Z,50.92
2023-04-29T11:59:53.852Z,52.05
2023-04-29T12:00:53.847Z,51.72
2023-04-29T12:01:53.869Z,53.50
2023-04-29T12:02:54.054Z,51.72
2023-04-29T12:03:54.136Z,53.98
2023-04-29T12:04:54.699Z,54.14
2023-04-29T12:05:53.849Z,53.01
2023-04-29T12:06:53.799Z,53.33
2023-04-29T12:07:53.798Z,53.33
2023-04-29T12:08:53.793Z,52.85
2023-04-29T12:09:53.793Z,52.37
2023-04-29T12:10:53.804Z,52.05
2023-04-29T12:11:53.765Z,52.53
2023-04-29T12:12:53.772Z,52.21
2023-04-29T12:13:53.758Z,52.53
2023-04-29T12:14:53.888Z,53.01
2023-04-29T12:15:53.794Z,53.01
2023-04-29T12:16:53.734Z,52.53
2023-04-29T12:17:53.751Z,50.11
2023-04-29T12:18:53.732Z,50.76
2023-04-29T12:19:53.716Z,50.60
2023-04-29T12:20:53.718Z,52.69
2023-04-29T12:21:53.710Z,52.21
2023-04-29T12:22:53.698Z,53.50
2023-04-29T12:23:53.691Z,51.24
2023-04-29T12:24:53.759Z,49.79
2023-04-29T12:25:53.660Z,50.92
2023-04-29T12:26:53.664Z,51.08
2023-04-29T12:27:53.654Z,52.53
2023-04-29T12:28:53.689Z,51.56
2023-04-29T12:29:53.691Z,50.60
2023-04-29T12:30:53.627Z,52.69
2023-04-29T12:31:53.777Z,52.37
2023-04-29T12:32:53.646Z,51.88
2023-04-29T12:33:53.850Z,51.56
2023-04-29T12:34:53.984Z,53.33
2023-04-29T12:35:53.601Z,52.85
2023-04-29T12:36:53.595Z,52.69
2023-04-29T12:37:53.594Z,52.53
2023-04-29T12:38:53.578Z,50.11
2023-04-29T12:39:53.591Z,51.88
2023-04-29T12:40:53.556Z,53.17
2023-04-29T12:41:53.564Z,52.37
2023-04-29T12:42:53.551Z,50.27
2023-04-29T12:43:53.554Z,52.37
2023-04-29T12:44:53.735Z,49.47
2023-04-29T12:45:53.535Z,50.43
2023-04-29T12:46:54.638Z,49.15
2023-04-29T12:47:53.546Z,47.86
2023-04-29T12:48:53.512Z,51.24
2023-04-29T12:49:53.507Z,50.11
2023-04-29T12:50:53.515Z,48.66
2023-04-29T12:51:53.497Z,52.85
2023-04-29T12:52:53.490Z,51.08